Time;durP1;ratioP1;P1;durP2;ratioP2;P2;SDS_P1;SDS_P2;PMS_P1;PMS_P2;Temp;Humidity;BMP_temperature;BMP_pressure;BME280_temperature;BME280_humidity;BME280_pressure;Samples;Min_cycle;Max_cycle;Signal;HPM_P1;HPM_P2
2022/01/16 00:04:34;;;;;;;331.77;108.40;;;;;;;;;;5048936;28;20028;-69
2022/01/16 00:07:03;;;;;;;262.77;86.88;;;;;;;;;;5066626;28;20028;-69
2022/01/16 00:09:32;;;;;;;318.25;101.97;;;;;;;;;;5049882;28;20505;-69
2022/01/16 00:12:00;;;;;;;305.98;103.70;;;;;;;;;;5064504;28;20029;-69
2022/01/16 00:14:26;;;;;;;280.42;92.70;;;;;;;;;;5048970;28;20028;-69
2022/01/16 00:16:51;;;;;;;263.27;92.65;;;;;;;;;;5049414;28;20551;-69
2022/01/16 00:19:17;;;;;;;239.88;80.47;;;;;;;;;;5048690;28;20112;-69
2022/01/16 00:21:44;;;;;;;204.93;70.45;;;;;;;;;;5043282;28;20058;-71
2022/01/16 00:24:10;;;;;;;206.55;70.68;;;;;;;;;;5047523;28;20033;-69
2022/01/16 00:26:36;;;;;;;213.32;72.68;;;;;;;;;;5049036;28;20036;-69
2022/01/16 00:29:07;;;;;;;205.82;67.40;;;;;;;;;;5049404;28;20036;-70
2022/01/16 00:31:32;;;;;;;201.70;67.18;;;;;;;;;;5049105;28;20055;-69
2022/01/16 00:33:58;;;;;;;204.60;66.07;;;;;;;;;;5044384;28;20037;-69
2022/01/16 00:36:23;;;;;;;191.57;65.03;;;;;;;;;;5052680;28;20059;-68
2022/01/16 00:38:49;;;;;;;203.40;66.57;;;;;;;;;;5048605;28;20098;-69
2022/01/16 00:41:17;;;;;;;197.68;66.25;;;;;;;;;;5048306;28;20032;-69
2022/01/16 00:43:43;;;;;;;188.48;65.35;;;;;;;;;;5049261;28;20107;-69
2022/01/16 00:46:10;;;;;;;209.43;71.05;;;;;;;;;;5048753;28;20085;-69
2022/01/16 00:48:36;;;;;;;188.20;69.50;;;;;;;;;;5048740;28;20032;-68
2022/01/16 00:51:01;;;;;;;189.25;66.75;;;;;;;;;;5048417;28;20043;-68
2022/01/16 00:53:27;;;;;;;178.07;63.55;;;;;;;;;;5048102;28;20490;-69
2022/01/16 00:55:57;;;;;;;187.25;64.18;;;;;;;;;;5048626;28;20036;-69
2022/01/16 00:58:23;;;;;;;182.73;63.95;;;;;;;;;;5048049;28;20020;-68
2022/01/16 01:00:50;;;;;;;185.40;63.10;;;;;;;;;;5048888;28;20135;-70
2022/01/16 01:03:16;;;;;;;180.77;60.75;;;;;;;;;;5047743;28;20032;-70
2022/01/16 01:05:41;;;;;;;180.82;63.30;;;;;;;;;;5048823;28;20021;-69
2022/01/16 01:08:08;;;;;;;181.90;64.10;;;;;;;;;;5047966;28;20055;-68
2022/01/16 01:10:39;;;;;;;167.40;62.03;;;;;;;;;;5049239;28;20306;-69
2022/01/16 01:13:55;;;;;;;179.60;63.97;;;;;;;;;;5048903;28;20036;-68
2022/01/16 01:16:02;;;;;;;165.82;60.95;;;;;;;;;;5046883;28;20123;-68
2022/01/16 01:18:27;;;;;;;129.57;51.70;;;;;;;;;;5047335;28;20032;-68
2022/01/16 01:20:54;;;;;;;162.05;59.78;;;;;;;;;;5048316;28;20041;-69
2022/01/16 01:23:19;;;;;;;177.82;63.10;;;;;;;;;;5046396;28;20040;-69
2022/01/16 01:25:44;;;;;;;172.68;62.20;;;;;;;;;;5052841;28;20460;-69
2022/01/16 01:28:11;;;;;;;153.00;56.90;;;;;;;;;;5080379;28;20063;-69
2022/01/16 01:30:38;;;;;;;81.05;35.60;;;;;;;;;;5048050;28;20032;-71
2022/01/16 01:33:03;;;;;;;66.00;33.05;;;;;;;;;;5046092;28;20399;-71
2022/01/16 01:35:38;;;;;;;68.53;32.90;;;;;;;;;;5047543;28;20271;-70
2022/01/16 01:38:03;;;;;;;68.10;34.53;;;;;;;;;;5048020;28;20123;-70
2022/01/16 01:40:29;;;;;;;69.57;32.00;;;;;;;;;;5047916;28;20043;-71
2022/01/16 01:51:08;;;;;;;56.50;29.63;;;;;;;;;;5047373;28;20070;-71
2022/01/16 01:53:34;;;;;;;56.08;28.92;;;;;;;;;;5048164;28;20388;-71
2022/01/16 01:56:08;;;;;;;52.08;29.23;;;;;;;;;;5046097;28;20159;-69
2022/01/16 01:58:34;;;;;;;56.13;29.20;;;;;;;;;;5046826;28;20028;-70
2022/01/16 02:01:00;;;;;;;49.42;27.80;;;;;;;;;;5047348;28;20481;-71
2022/01/16 02:03:42;;;;;;;53.03;27.63;;;;;;;;;;5046734;28;20024;-70
2022/01/16 02:06:18;;;;;;;52.00;28.35;;;;;;;;;;5047363;28;20050;-71
2022/01/16 02:08:45;;;;;;;47.63;28.10;;;;;;;;;;5046881;28;20028;-73
2022/01/16 02:11:11;;;;;;;47.92;27.60;;;;;;;;;;5047650;28;20081;-70
2022/01/16 02:13:47;;;;;;;52.13;27.02;;;;;;;;;;5046983;28;20078;-72
2022/01/16 02:30:41;;;;;;;47.55;22.58;;;;;;;;;;5046074;28;20020;-70
2022/01/16 02:33:22;;;;;;;43.15;21.27;;;;;;;;;;5046879;28;20081;-71
2022/01/16 02:35:33;;;;;;;41.08;20.88;;;;;;;;;;5041319;28;20127;-70
2022/01/16 02:37:58;;;;;;;40.78;20.55;;;;;;;;;;5047505;28;20632;-72
2022/01/16 02:40:26;;;;;;;37.00;20.15;;;;;;;;;;5047133;28;20028;-71
2022/01/16 02:42:54;;;;;;;30.38;18.38;;;;;;;;;;5046754;28;20028;-70
2022/01/16 02:45:35;;;;;;;39.38;18.60;;;;;;;;;;5061854;28;20020;-71
2022/01/16 02:48:02;;;;;;;34.28;18.38;;;;;;;;;;5045235;28;20124;-71
2022/01/16 02:50:30;;;;;;;33.60;17.60;;;;;;;;;;5046170;28;20043;-72
2022/01/16 02:52:55;;;;;;;32.80;16.88;;;;;;;;;;5046365;28;20036;-71
2022/01/16 02:55:24;;;;;;;40.40;17.15;;;;;;;;;;5041766;28;21930;-71
2022/01/16 02:57:50;;;;;;;37.72;17.63;;;;;;;;;;5046643;28;20047;-70
2022/01/16 03:00:16;;;;;;;37.25;17.48;;;;;;;;;;5061643;28;20403;-71
2022/01/16 03:02:42;;;;;;;37.03;16.70;;;;;;;;;;5079116;28;20025;-71
2022/01/16 03:05:08;;;;;;;36.15;17.45;;;;;;;;;;5051061;28;20101;-71
2022/01/16 03:07:33;;;;;;;35.10;18.05;;;;;;;;;;5049259;28;20237;-71
2022/01/16 03:12:50;;;;;;;36.97;18.40;;;;;;;;;;5041343;28;20171;-72
2022/01/16 03:15:17;;;;;;;40.83;18.42;;;;;;;;;;5050514;28;20032;-70
2022/01/16 03:23:10;;;;;;;38.20;18.63;;;;;;;;;;5050383;28;20866;-71
2022/01/16 03:25:38;;;;;;;37.10;17.83;;;;;;;;;;5050477;28;20031;-71
2022/01/16 03:28:04;;;;;;;36.67;18.40;;;;;;;;;;5050626;28;20214;-70
2022/01/16 03:30:29;;;;;;;45.95;18.27;;;;;;;;;;5044866;28;20032;-71
2022/01/16 03:32:54;;;;;;;38.42;16.85;;;;;;;;;;5050386;28;20115;-71
2022/01/16 03:35:22;;;;;;;36.85;16.73;;;;;;;;;;5049586;28;20024;-71
2022/01/16 03:37:48;;;;;;;34.35;16.42;;;;;;;;;;5050636;28;20024;-71
2022/01/16 03:40:16;;;;;;;28.65;16.08;;;;;;;;;;5050134;28;20113;-70
2022/01/16 03:42:41;;;;;;;34.75;16.75;;;;;;;;;;5050773;28;20480;-71
2022/01/16 03:45:07;;;;;;;40.17;17.50;;;;;;;;;;5082849;28;21834;-70
2022/01/16 03:47:35;;;;;;;40.65;19.10;;;;;;;;;;5048251;28;20037;-70
2022/01/16 03:50:01;;;;;;;38.58;19.58;;;;;;;;;;5033302;28;20074;-70
2022/01/16 03:52:27;;;;;;;45.75;19.65;;;;;;;;;;5050027;28;20047;-70
2022/01/16 03:54:52;;;;;;;43.55;18.80;;;;;;;;;;5049813;28;20032;-70
2022/01/16 03:57:17;;;;;;;39.00;19.00;;;;;;;;;;5047036;28;20124;-70
2022/01/16 03:59:43;;;;;;;36.85;19.65;;;;;;;;;;5049518;28;20028;-71
2022/01/16 04:02:11;;;;;;;38.42;18.52;;;;;;;;;;5050232;28;20044;-71
2022/01/16 04:04:43;;;;;;;41.28;20.00;;;;;;;;;;5049769;28;20097;-71
2022/01/16 04:07:16;;;;;;;44.45;19.55;;;;;;;;;;5049338;28;20089;-70
2022/01/16 04:09:41;;;;;;;41.38;19.27;;;;;;;;;;5049096;28;20029;-72
2022/01/16 04:12:09;;;;;;;39.60;20.45;;;;;;;;;;5050258;28;20025;-72
2022/01/16 04:17:16;;;;;;;39.00;19.75;;;;;;;;;;5049217;28;20027;-72
2022/01/16 04:19:42;;;;;;;42.60;19.35;;;;;;;;;;5049162;28;20150;-72
2022/01/16 04:22:07;;;;;;;41.50;19.23;;;;;;;;;;5049506;28;20120;-72
2022/01/16 04:24:33;;;;;;;39.22;19.48;;;;;;;;;;5049345;28;20429;-71
2022/01/16 04:26:59;;;;;;;37.95;19.35;;;;;;;;;;5032852;28;20542;-71
2022/01/16 04:29:24;;;;;;;32.15;17.30;;;;;;;;;;5049105;28;20433;-70
2022/01/16 04:31:49;;;;;;;37.20;17.95;;;;;;;;;;5064524;28;21885;-73
2022/01/16 04:34:17;;;;;;;42.75;17.83;;;;;;;;;;5048498;28;20259;-70
2022/01/16 04:36:42;;;;;;;37.20;17.30;;;;;;;;;;5049393;28;20060;-70
2022/01/16 04:39:14;;;;;;;34.85;17.80;;;;;;;;;;5048702;28;20192;-71
2022/01/16 04:44:23;;;;;;;41.15;17.30;;;;;;;;;;5049016;28;20055;-71
2022/01/16 04:46:48;;;;;;;40.83;17.90;;;;;;;;;;5047840;28;20059;-70
2022/01/16 04:49:14;;;;;;;41.50;17.85;;;;;;;;;;5080911;28;20506;-70
2022/01/16 04:51:39;;;;;;;34.95;17.08;;;;;;;;;;5081451;28;20040;-70
2022/01/16 04:54:08;;;;;;;37.67;16.95;;;;;;;;;;5048884;28;21887;-71
2022/01/16 04:56:33;;;;;;;31.05;15.80;;;;;;;;;;5080704;28;20036;-71
2022/01/16 04:58:58;;;;;;;39.55;15.68;;;;;;;;;;5049157;28;20043;-71
2022/01/16 05:01:24;;;;;;;32.03;13.95;;;;;;;;;;5045323;28;20031;-71
2022/01/16 05:03:49;;;;;;;32.28;14.55;;;;;;;;;;5047810;28;20108;-70
2022/01/16 05:06:15;;;;;;;32.38;13.65;;;;;;;;;;5048850;28;20365;-70
2022/01/16 05:08:40;;;;;;;30.38;13.02;;;;;;;;;;5049013;28;20540;-70
2022/01/16 05:11:07;;;;;;;33.85;13.88;;;;;;;;;;5048616;28;20111;-71
2022/01/16 05:18:48;;;;;;;43.67;12.88;;;;;;;;;;5046811;28;20123;-71
2022/01/16 05:21:13;;;;;;;34.70;12.70;;;;;;;;;;5048077;28;20047;-71
2022/01/16 05:23:41;;;;;;;28.30;11.95;;;;;;;;;;5043184;28;20073;-71
2022/01/16 05:26:07;;;;;;;26.17;12.15;;;;;;;;;;5048610;28;20060;-71
2022/01/16 05:28:32;;;;;;;29.05;12.57;;;;;;;;;;5047478;28;20123;-71
2022/01/16 05:30:58;;;;;;;34.53;12.20;;;;;;;;;;5080877;28;20141;-70
2022/01/16 05:33:23;;;;;;;32.33;11.52;;;;;;;;;;5045700;28;20033;-70
2022/01/16 05:35:51;;;;;;;30.98;12.35;;;;;;;;;;5048351;28;20029;-70
2022/01/16 05:38:17;;;;;;;31.98;11.40;;;;;;;;;;5046444;28;20507;-72
2022/01/16 05:40:43;;;;;;;31.58;11.70;;;;;;;;;;5048410;28;20043;-70
2022/01/16 05:43:10;;;;;;;27.83;10.77;;;;;;;;;;5045554;28;20078;-70
2022/01/16 05:45:36;;;;;;;36.85;11.32;;;;;;;;;;5048038;28;20639;-70
2022/01/16 05:48:01;;;;;;;37.65;11.00;;;;;;;;;;5048488;28;20130;-70
2022/01/16 05:50:27;;;;;;;33.15;11.15;;;;;;;;;;5047842;28;20032;-70
2022/01/16 05:52:53;;;;;;;31.02;9.95;;;;;;;;;;5048001;28;20052;-70
2022/01/16 05:55:19;;;;;;;25.73;8.90;;;;;;;;;;5047881;28;20422;-70
2022/01/16 05:57:45;;;;;;;28.25;7.57;;;;;;;;;;5047271;28;20049;-70
2022/01/16 06:00:11;;;;;;;20.08;6.72;;;;;;;;;;5048237;28;20263;-70
2022/01/16 06:02:39;;;;;;;24.42;6.70;;;;;;;;;;5080004;28;20568;-72
2022/01/16 06:05:05;;;;;;;17.70;6.03;;;;;;;;;;5047758;28;20107;-70
2022/01/16 06:07:31;;;;;;;18.95;5.03;;;;;;;;;;5048127;28;22311;-71
2022/01/16 06:10:02;;;;;;;23.05;5.32;;;;;;;;;;5046592;28;20324;-70
2022/01/16 06:12:27;;;;;;;23.95;5.03;;;;;;;;;;5047575;28;20016;-71
2022/01/16 06:14:53;;;;;;;17.55;4.85;;;;;;;;;;5047069;28;20041;-71
2022/01/16 06:17:18;;;;;;;27.35;5.07;;;;;;;;;;5047147;28;20020;-70
2022/01/16 06:19:45;;;;;;;18.10;4.85;;;;;;;;;;5047928;28;20054;-70
2022/01/16 06:22:11;;;;;;;19.35;4.03;;;;;;;;;;5045626;28;20882;-70
2022/01/16 06:24:36;;;;;;;19.98;4.65;;;;;;;;;;5047004;28;20036;-71
2022/01/16 06:27:01;;;;;;;21.02;4.35;;;;;;;;;;5047354;28;20048;-71
2022/01/16 06:29:27;;;;;;;16.83;3.88;;;;;;;;;;5044763;28;20051;-70
2022/01/16 06:31:52;;;;;;;15.82;4.43;;;;;;;;;;5045695;28;20122;-70
2022/01/16 06:34:17;;;;;;;13.07;3.58;;;;;;;;;;5079710;28;21904;-71
2022/01/16 06:36:42;;;;;;;15.52;4.68;;;;;;;;;;5047856;28;20051;-70
2022/01/16 06:39:10;;;;;;;16.73;4.55;;;;;;;;;;5046280;28;20032;-70
2022/01/16 06:41:39;;;;;;;20.17;4.57;;;;;;;;;;5047177;28;20090;-70
2022/01/16 06:44:04;;;;;;;15.43;4.05;;;;;;;;;;5046833;28;20477;-69
2022/01/16 06:46:30;;;;;;;17.67;4.38;;;;;;;;;;5047016;28;20070;-69
2022/01/16 06:48:56;;;;;;;26.67;5.20;;;;;;;;;;5046392;28;20033;-68
2022/01/16 06:51:23;;;;;;;19.40;5.18;;;;;;;;;;5079002;28;20675;-69
2022/01/16 06:53:49;;;;;;;16.23;4.78;;;;;;;;;;5046511;28;20529;-69
2022/01/16 06:56:16;;;;;;;15.85;5.03;;;;;;;;;;5046780;28;20036;-68
2022/01/16 06:58:44;;;;;;;25.45;5.30;;;;;;;;;;5046675;28;20490;-68
2022/01/16 07:01:10;;;;;;;21.77;5.20;;;;;;;;;;5046963;28;20032;-69
2022/01/16 07:03:38;;;;;;;17.77;5.15;;;;;;;;;;5047330;28;20525;-68
2022/01/16 07:06:04;;;;;;;29.75;6.82;;;;;;;;;;5047446;28;20089;-70
2022/01/16 07:08:29;;;;;;;15.35;5.68;;;;;;;;;;5047174;28;20431;-70
2022/01/16 07:10:58;;;;;;;21.98;6.13;;;;;;;;;;5046811;28;21021;-69
2022/01/16 07:13:24;;;;;;;21.10;7.13;;;;;;;;;;5046637;28;20373;-68
2022/01/16 07:15:50;;;;;;;24.90;6.63;;;;;;;;;;5043209;28;20024;-69
2022/01/16 07:18:15;;;;;;;20.58;6.18;;;;;;;;;;5047207;28;20167;-71
2022/01/16 07:20:43;;;;;;;21.00;6.55;;;;;;;;;;5046329;28;20036;-68
2022/01/16 07:23:09;;;;;;;20.33;5.97;;;;;;;;;;5062234;28;20460;-68
2022/01/16 07:25:36;;;;;;;22.80;6.75;;;;;;;;;;5047024;28;20027;-69
2022/01/16 07:28:02;;;;;;;21.13;6.75;;;;;;;;;;5044891;28;20024;-69
2022/01/16 07:30:30;;;;;;;27.67;6.63;;;;;;;;;;5046576;28;20052;-68
2022/01/16 07:32:59;;;;;;;23.63;6.70;;;;;;;;;;5047087;28;20123;-68
2022/01/16 07:35:26;;;;;;;23.25;5.45;;;;;;;;;;5046279;28;20578;-68
2022/01/16 07:37:54;;;;;;;23.58;5.72;;;;;;;;;;5050770;28;20127;-68
2022/01/16 07:40:21;;;;;;;21.58;5.43;;;;;;;;;;5061602;28;20310;-69
2022/01/16 07:42:47;;;;;;;17.05;4.90;;;;;;;;;;5050452;28;20443;-68
2022/01/16 07:45:12;;;;;;;16.02;4.00;;;;;;;;;;5046224;28;20036;-69
2022/01/16 07:47:40;;;;;;;20.40;4.78;;;;;;;;;;5046325;28;20215;-69
2022/01/16 07:50:06;;;;;;;19.67;6.32;;;;;;;;;;5048901;28;20850;-69
2022/01/16 07:52:32;;;;;;;22.77;6.47;;;;;;;;;;5049860;28;20482;-69
2022/01/16 07:54:57;;;;;;;23.60;6.22;;;;;;;;;;5047031;28;20119;-70
2022/01/16 07:57:24;;;;;;;31.63;7.55;;;;;;;;;;5049984;28;20523;-69
2022/01/16 07:59:52;;;;;;;25.15;7.13;;;;;;;;;;5049588;28;20131;-69
2022/01/16 08:02:17;;;;;;;22.95;7.72;;;;;;;;;;5065010;28;20032;-68
2022/01/16 08:04:45;;;;;;;27.55;8.18;;;;;;;;;;5049036;28;20056;-69
2022/01/16 08:07:10;;;;;;;30.95;8.82;;;;;;;;;;5049950;28;20109;-70
2022/01/16 08:09:36;;;;;;;29.02;8.88;;;;;;;;;;5047057;28;20142;-68
2022/01/16 08:12:03;;;;;;;28.45;7.97;;;;;;;;;;5050314;28;20035;-68
2022/01/16 08:14:31;;;;;;;24.77;8.48;;;;;;;;;;5049370;28;20773;-69
2022/01/16 08:16:56;;;;;;;24.05;8.85;;;;;;;;;;5049945;28;20545;-70
2022/01/16 08:19:24;;;;;;;31.35;9.32;;;;;;;;;;5048690;28;20063;-68
2022/01/16 08:21:50;;;;;;;33.10;9.00;;;;;;;;;;5049469;28;20179;-68
2022/01/16 08:24:18;;;;;;;24.35;8.60;;;;;;;;;;5049496;28;20404;-69
2022/01/16 08:26:44;;;;;;;27.45;9.15;;;;;;;;;;5049176;28;20028;-69
2022/01/16 08:29:11;;;;;;;29.50;9.25;;;;;;;;;;5050117;28;20033;-69
2022/01/16 08:31:37;;;;;;;34.60;9.23;;;;;;;;;;5052948;28;20037;-69
2022/01/16 08:34:03;;;;;;;29.27;9.55;;;;;;;;;;5049008;28;20436;-68
2022/01/16 08:36:31;;;;;;;33.72;9.45;;;;;;;;;;5049453;28;20077;-70
2022/01/16 08:38:56;;;;;;;25.75;9.02;;;;;;;;;;5049761;28;20020;-69
2022/01/16 08:41:23;;;;;;;23.88;10.18;;;;;;;;;;5082227;28;20118;-68
2022/01/16 08:43:51;;;;;;;24.35;9.57;;;;;;;;;;5043589;28;20035;-67
2022/01/16 08:46:17;;;;;;;30.83;9.63;;;;;;;;;;5048983;28;20028;-71
2022/01/16 08:48:42;;;;;;;23.38;9.63;;;;;;;;;;5048095;28;20082;-69
2022/01/16 08:51:08;;;;;;;24.55;9.55;;;;;;;;;;5049155;28;20459;-68
2022/01/16 08:53:34;;;;;;;28.88;10.25;;;;;;;;;;5048962;28;20494;-69
2022/01/16 08:56:00;;;;;;;30.80;10.25;;;;;;;;;;5048953;28;20032;-69
2022/01/16 08:58:26;;;;;;;32.67;9.43;;;;;;;;;;5048475;28;20621;-67
2022/01/16 09:00:51;;;;;;;29.80;9.93;;;;;;;;;;5047952;28;20112;-70
2022/01/16 09:03:21;;;;;;;28.40;9.25;;;;;;;;;;5047754;28;20842;-70
2022/01/16 09:05:47;;;;;;;26.30;10.35;;;;;;;;;;5049383;28;20540;-70
2022/01/16 09:08:13;;;;;;;31.60;9.60;;;;;;;;;;5048957;28;20085;-68
2022/01/16 09:10:41;;;;;;;28.00;9.65;;;;;;;;;;5047454;28;20032;-68
2022/01/16 09:13:06;;;;;;;37.55;10.23;;;;;;;;;;5049153;28;20237;-69
2022/01/16 09:15:32;;;;;;;41.20;10.05;;;;;;;;;;5047837;28;20043;-68
2022/01/16 09:17:58;;;;;;;26.98;9.85;;;;;;;;;;5030722;28;20036;-68
2022/01/16 09:20:26;;;;;;;42.90;10.45;;;;;;;;;;5047976;28;20067;-68
2022/01/16 09:22:51;;;;;;;34.13;9.73;;;;;;;;;;5080261;28;20239;-68
2022/01/16 09:25:19;;;;;;;25.90;9.68;;;;;;;;;;5048069;28;20037;-68
2022/01/16 09:27:49;;;;;;;33.08;9.85;;;;;;;;;;5048449;28;20033;-68
2022/01/16 09:30:15;;;;;;;26.67;9.98;;;;;;;;;;5051418;28;20440;-68
2022/01/16 09:32:41;;;;;;;30.88;9.80;;;;;;;;;;5049020;28;20034;-70
2022/01/16 09:35:07;;;;;;;26.45;8.90;;;;;;;;;;5049380;28;20181;-68
2022/01/16 09:37:37;;;;;;;29.63;9.45;;;;;;;;;;5048209;28;20559;-68
2022/01/16 09:40:06;;;;;;;34.10;8.52;;;;;;;;;;5047940;28;20469;-69
2022/01/16 09:42:31;;;;;;;21.20;7.88;;;;;;;;;;5047404;28;20448;-69
2022/01/16 09:44:58;;;;;;;27.48;8.77;;;;;;;;;;5047399;28;20036;-69
2022/01/16 09:47:24;;;;;;;26.95;8.30;;;;;;;;;;5047580;28;20488;-69
2022/01/16 09:49:50;;;;;;;25.58;8.40;;;;;;;;;;5047370;28;20598;-69
2022/01/16 09:52:16;;;;;;;29.23;8.73;;;;;;;;;;5047409;28;20128;-68
2022/01/16 09:54:44;;;;;;;27.75;8.73;;;;;;;;;;5048323;28;20457;-69
2022/01/16 09:57:09;;;;;;;28.35;7.25;;;;;;;;;;5047591;28;20037;-69
2022/01/16 09:59:35;;;;;;;31.65;8.10;;;;;;;;;;5046814;28;20028;-69
2022/01/16 10:02:02;;;;;;;27.75;7.10;;;;;;;;;;5047922;28;20035;-69
2022/01/16 10:04:35;;;;;;;22.27;7.90;;;;;;;;;;5046980;28;20681;-67
2022/01/16 10:07:03;;;;;;;25.38;6.88;;;;;;;;;;5047809;28;20437;-68
2022/01/16 10:09:28;;;;;;;30.55;7.93;;;;;;;;;;5047165;28;20130;-68
2022/01/16 10:11:56;;;;;;;29.42;7.78;;;;;;;;;;5045219;28;20539;-68
2022/01/16 10:14:44;;;;;;;21.92;7.20;;;;;;;;;;5047253;28;20391;-68
2022/01/16 10:17:10;;;;;;;24.17;7.38;;;;;;;;;;5042490;28;20671;-69
2022/01/16 10:19:38;;;;;;;29.50;7.20;;;;;;;;;;5046899;28;20447;-69
2022/01/16 10:22:16;;;;;;;23.58;7.03;;;;;;;;;;5046951;28;20106;-67
2022/01/16 10:24:42;;;;;;;18.58;6.35;;;;;;;;;;5047681;28;20405;-69
2022/01/16 10:27:07;;;;;;;29.30;6.78;;;;;;;;;;5047418;28;20472;-69
2022/01/16 10:29:34;;;;;;;27.23;6.80;;;;;;;;;;5047116;28;20039;-67
2022/01/16 10:32:12;;;;;;;22.75;7.13;;;;;;;;;;5045869;28;20373;-68
2022/01/16 10:34:38;;;;;;;23.00;6.70;;;;;;;;;;5047109;28;20048;-68
2022/01/16 10:37:22;;;;;;;28.10;6.32;;;;;;;;;;5047474;28;20040;-69
2022/01/16 10:40:03;;;;;;;23.80;6.50;;;;;;;;;;5047757;28;20051;-69
2022/01/16 10:42:29;;;;;;;29.77;6.18;;;;;;;;;;5047370;28;20024;-68
2022/01/16 10:45:14;;;;;;;26.65;7.10;;;;;;;;;;5041210;28;20448;-70
2022/01/16 10:47:51;;;;;;;23.40;6.05;;;;;;;;;;5045834;28;20533;-69
2022/01/16 10:50:18;;;;;;;27.15;5.90;;;;;;;;;;5047598;28;20036;-69
2022/01/16 10:52:51;;;;;;;21.55;6.28;;;;;;;;;;5047228;28;20042;-72
2022/01/16 10:55:17;;;;;;;26.45;6.07;;;;;;;;;;5047670;28;20044;-70
2022/01/16 10:57:43;;;;;;;23.98;6.18;;;;;;;;;;5047259;28;20262;-70
2022/01/16 11:00:11;;;;;;;31.52;6.25;;;;;;;;;;5047194;28;20745;-69
2022/01/16 11:02:41;;;;;;;22.30;5.78;;;;;;;;;;5046917;28;20028;-70
2022/01/16 11:05:14;;;;;;;24.98;6.78;;;;;;;;;;5050428;28;20032;-71
2022/01/16 11:07:39;;;;;;;24.30;5.57;;;;;;;;;;5079129;28;20031;-69
2022/01/16 11:10:21;;;;;;;27.40;6.57;;;;;;;;;;5047633;28;20055;-69
2022/01/16 11:12:48;;;;;;;21.67;5.38;;;;;;;;;;5047373;28;20031;-70
2022/01/16 11:15:14;;;;;;;25.58;5.72;;;;;;;;;;5047033;28;20032;-69
2022/01/16 11:17:39;;;;;;;22.13;5.53;;;;;;;;;;5047803;28;20028;-70
2022/01/16 11:20:06;;;;;;;21.85;6.25;;;;;;;;;;5045374;28;20041;-70
2022/01/16 11:22:45;;;;;;;30.00;5.90;;;;;;;;;;5047155;28;20098;-70
2022/01/16 11:25:23;;;;;;;26.67;6.85;;;;;;;;;;5049864;28;20095;-70
2022/01/16 11:27:48;;;;;;;33.58;6.57;;;;;;;;;;5050910;28;20512;-70
2022/01/16 11:30:14;;;;;;;23.83;5.95;;;;;;;;;;5049682;28;22250;-70
2022/01/16 11:32:39;;;;;;;19.05;6.13;;;;;;;;;;5048643;28;20032;-71
2022/01/16 11:35:05;;;;;;;24.73;6.00;;;;;;;;;;5050154;28;20037;-70
2022/01/16 11:37:31;;;;;;;21.98;6.03;;;;;;;;;;5051265;28;20036;-71
2022/01/16 11:40:17;;;;;;;28.90;6.30;;;;;;;;;;5051041;28;20032;-71
2022/01/16 11:42:42;;;;;;;21.38;5.65;;;;;;;;;;5082215;28;20215;-71
2022/01/16 11:45:09;;;;;;;28.80;6.82;;;;;;;;;;5050814;28;20074;-70
2022/01/16 11:47:34;;;;;;;24.77;6.43;;;;;;;;;;5050716;28;20028;-70
2022/01/16 11:50:07;;;;;;;22.92;5.88;;;;;;;;;;5050582;28;20047;-70
2022/01/16 11:52:41;;;;;;;24.38;6.05;;;;;;;;;;5050272;28;21128;-71
2022/01/16 11:55:09;;;;;;;21.10;6.35;;;;;;;;;;5082344;28;20532;-70
2022/01/16 11:57:54;;;;;;;24.95;6.07;;;;;;;;;;5049608;28;20129;-71
2022/01/16 12:00:21;;;;;;;24.58;5.65;;;;;;;;;;5050022;28;20040;-70
2022/01/16 12:02:53;;;;;;;26.23;5.65;;;;;;;;;;5049409;28;20565;-71
2022/01/16 12:05:28;;;;;;;20.80;6.37;;;;;;;;;;5049823;28;20470;-70
2022/01/16 12:07:58;;;;;;;23.90;7.03;;;;;;;;;;5049550;28;20271;-70
2022/01/16 12:10:40;;;;;;;25.83;6.95;;;;;;;;;;5082210;28;20032;-70
2022/01/16 12:13:12;;;;;;;27.73;6.88;;;;;;;;;;5050233;28;20032;-70
2022/01/16 12:15:37;;;;;;;22.87;7.33;;;;;;;;;;5050364;28;20045;-69
2022/01/16 12:18:02;;;;;;;26.30;7.30;;;;;;;;;;5049787;28;20391;-70
2022/01/16 12:20:31;;;;;;;24.90;7.82;;;;;;;;;;5050115;28;20048;-70
2022/01/16 12:22:57;;;;;;;27.20;8.20;;;;;;;;;;5049756;28;20044;-70
2022/01/16 12:25:45;;;;;;;31.83;8.13;;;;;;;;;;5049404;28;20040;-70
2022/01/16 12:28:11;;;;;;;30.45;8.88;;;;;;;;;;5050416;28;20052;-70
2022/01/16 12:30:53;;;;;;;34.38;8.27;;;;;;;;;;5049965;28;20127;-71
2022/01/16 12:33:37;;;;;;;34.28;7.82;;;;;;;;;;5049652;28;20036;-72
2022/01/16 12:36:08;;;;;;;23.23;6.97;;;;;;;;;;5048325;28;20029;-70
2022/01/16 12:38:54;;;;;;;29.00;7.00;;;;;;;;;;5064623;28;20060;-71
2022/01/16 12:41:27;;;;;;;30.13;7.60;;;;;;;;;;5048022;28;20040;-70
2022/01/16 12:43:54;;;;;;;31.40;8.57;;;;;;;;;;5049074;28;20098;-71
2022/01/16 12:46:27;;;;;;;27.23;7.57;;;;;;;;;;5053406;28;20508;-71
2022/01/16 12:48:54;;;;;;;28.88;7.97;;;;;;;;;;5043301;28;20361;-70
2022/01/16 12:51:23;;;;;;;32.97;8.73;;;;;;;;;;5048971;28;20489;-70
2022/01/16 12:53:50;;;;;;;34.67;9.55;;;;;;;;;;5049934;28;20472;-72
2022/01/16 12:56:21;;;;;;;39.25;11.15;;;;;;;;;;5048455;28;20020;-72
2022/01/16 12:58:51;;;;;;;26.27;10.35;;;;;;;;;;5049024;28;20199;-69
2022/01/16 13:01:16;;;;;;;34.60;11.20;;;;;;;;;;5048211;28;20033;-70
2022/01/16 13:03:44;;;;;;;33.30;10.20;;;;;;;;;;5048768;28;20028;-70
2022/01/16 13:06:18;;;;;;;36.72;11.20;;;;;;;;;;5049677;28;20077;-70
2022/01/16 13:08:52;;;;;;;32.42;10.20;;;;;;;;;;5048448;28;20045;-70
2022/01/16 13:11:20;;;;;;;30.70;10.90;;;;;;;;;;5050064;28;20644;-70
2022/01/16 13:13:46;;;;;;;27.95;10.88;;;;;;;;;;5047971;28;20028;-70
2022/01/16 13:16:18;;;;;;;38.33;11.73;;;;;;;;;;5049260;28;20028;-70
2022/01/16 13:19:00;;;;;;;32.38;11.10;;;;;;;;;;5048089;28;20033;-70
2022/01/16 13:21:33;;;;;;;34.47;10.75;;;;;;;;;;5048478;28;20044;-71
2022/01/16 13:23:58;;;;;;;38.15;10.48;;;;;;;;;;5047204;28;20484;-70
2022/01/16 13:26:25;;;;;;;29.90;10.77;;;;;;;;;;5048691;28;20028;-70
2022/01/16 13:28:58;;;;;;;38.08;10.80;;;;;;;;;;5048011;28;20192;-70
2022/01/16 13:31:24;;;;;;;30.05;10.57;;;;;;;;;;5047425;28;20028;-69
2022/01/16 13:34:04;;;;;;;29.73;10.05;;;;;;;;;;5048080;28;20024;-69
2022/01/16 13:36:33;;;;;;;32.92;10.15;;;;;;;;;;5048763;28;20123;-70
2022/01/16 13:39:01;;;;;;;36.15;10.25;;;;;;;;;;5048321;28;20117;-71
2022/01/16 13:41:26;;;;;;;33.25;10.45;;;;;;;;;;5048294;28;20028;-70
2022/01/16 13:43:51;;;;;;;42.63;11.40;;;;;;;;;;5046662;28;20798;-69
2022/01/16 13:46:16;;;;;;;29.45;9.90;;;;;;;;;;5047912;28;20073;-69
2022/01/16 13:48:42;;;;;;;33.45;10.75;;;;;;;;;;5047463;28;20051;-70
2022/01/16 13:51:07;;;;;;;32.58;10.40;;;;;;;;;;5048550;28;20477;-70
2022/01/16 13:53:39;;;;;;;24.05;9.38;;;;;;;;;;5048090;28;20028;-70
2022/01/16 13:56:21;;;;;;;25.75;10.10;;;;;;;;;;5047675;28;20032;-69
2022/01/16 13:58:47;;;;;;;32.92;9.93;;;;;;;;;;5047888;28;20445;-70
2022/01/16 14:01:21;;;;;;;39.40;11.57;;;;;;;;;;5047255;28;20754;-71
2022/01/16 14:03:51;;;;;;;33.40;12.50;;;;;;;;;;5046107;28;20032;-70
2022/01/16 14:06:19;;;;;;;32.60;12.18;;;;;;;;;;5048015;28;20572;-70
2022/01/16 14:08:51;;;;;;;34.45;13.38;;;;;;;;;;5048286;28;20199;-70
2022/01/16 14:11:23;;;;;;;40.03;13.65;;;;;;;;;;5047663;28;20127;-71
2022/01/16 14:13:59;;;;;;;39.15;13.63;;;;;;;;;;5047523;28;20074;-70
2022/01/16 14:16:36;;;;;;;43.60;14.45;;;;;;;;;;5048408;28;20020;-70
2022/01/16 14:24:03;;;;;;;45.28;14.55;;;;;;;;;;5046986;28;20040;-70
2022/01/16 14:26:29;;;;;;;43.65;14.93;;;;;;;;;;5046848;28;20091;-70
2022/01/16 14:28:56;;;;;;;30.92;14.07;;;;;;;;;;5047800;28;20028;-70
2022/01/16 14:31:22;;;;;;;41.83;14.20;;;;;;;;;;5047422;28;20542;-70
2022/01/16 14:33:50;;;;;;;37.00;14.77;;;;;;;;;;5046703;28;20479;-69
2022/01/16 14:36:16;;;;;;;48.72;15.63;;;;;;;;;;5041616;28;20032;-70
2022/01/16 14:38:41;;;;;;;47.53;15.50;;;;;;;;;;5046536;28;20051;-70
2022/01/16 14:41:07;;;;;;;34.25;14.82;;;;;;;;;;5051358;28;20080;-70
2022/01/16 14:43:51;;;;;;;43.08;15.38;;;;;;;;;;5046659;28;22254;-71
2022/01/16 14:46:19;;;;;;;39.08;15.32;;;;;;;;;;5047003;28;20171;-71
2022/01/16 14:48:47;;;;;;;35.95;15.27;;;;;;;;;;5046684;28;20124;-70
2022/01/16 14:51:20;;;;;;;42.42;16.08;;;;;;;;;;5029022;28;20036;-71
2022/01/16 14:53:45;;;;;;;38.97;15.43;;;;;;;;;;5045584;28;20040;-70
2022/01/16 14:56:11;;;;;;;40.60;15.80;;;;;;;;;;5045787;28;20381;-70
2022/01/16 14:58:37;;;;;;;35.13;15.63;;;;;;;;;;5062754;28;20141;-70
2022/01/16 15:01:02;;;;;;;46.72;15.20;;;;;;;;;;5050672;28;20028;-69
2022/01/16 15:03:32;;;;;;;41.53;16.33;;;;;;;;;;5050364;28;20098;-71
2022/01/16 15:05:57;;;;;;;39.10;15.52;;;;;;;;;;5051136;28;20376;-69
2022/01/16 15:08:23;;;;;;;40.08;16.10;;;;;;;;;;5050850;28;20412;-72
2022/01/16 15:10:50;;;;;;;34.00;14.98;;;;;;;;;;5049742;28;20234;-70
2022/01/16 15:13:16;;;;;;;42.03;15.30;;;;;;;;;;5050917;28;20107;-70
2022/01/16 15:15:41;;;;;;;44.38;15.23;;;;;;;;;;5050441;28;20121;-70